sensor_id;sensor_type;location;lat;lon;timestamp;pressure;altitude;pressure_sealevel;temperature;humidity
35910;BME280;22004;49.120;-0.200;2024-01-10T19:46:26;102479.22;;;7.83;67.25
35910;BME280;22004;49.120;-0.200;2024-01-10T19:48:52;102481.19;;;7.92;67.12
35910;BME280;22004;49.120;-0.200;2024-01-10T19:51:17;102479.59;;;7.78;67.62
35910;BME280;22004;49.120;-0.200;2024-01-10T19:53:43;102480.31;;;7.81;67.92
35910;BME280;22004;49.120;-0.200;2024-01-10T19:56:13;102487.59;;;7.78;67.45
35910;BME280;22004;49.120;-0.200;2024-01-10T19:58:40;102489.06;;;7.83;67.51
35910;BME280;22004;49.120;-0.200;2024-01-10T20:01:05;102484.81;;;7.80;67.05
35910;BME280;22004;49.120;-0.200;2024-01-10T20:03:30;102495.91;;;7.87;67.22
35910;BME280;22004;49.120;-0.200;2024-01-10T20:05:56;102494.16;;;7.74;67.54
35910;BME280;22004;49.120;-0.200;2024-01-10T20:08:22;102497.31;;;7.68;67.84
35910;BME280;22004;49.120;-0.200;2024-01-10T20:10:47;102504.25;;;7.71;67.69
35910;BME280;22004;49.120;-0.200;2024-01-10T20:13:12;102512.50;;;7.68;67.60
35910;BME280;22004;49.120;-0.200;2024-01-10T20:15:38;102501.81;;;7.68;67.54
35910;BME280;22004;49.120;-0.200;2024-01-10T20:18:03;102508.72;;;7.70;67.61
35910;BME280;22004;49.120;-0.200;2024-01-10T20:20:29;102516.53;;;7.73;67.52
35910;BME280;22004;49.120;-0.200;2024-01-10T20:22:55;102520.31;;;7.71;67.32
35910;BME280;22004;49.120;-0.200;2024-01-10T20:25:20;102528.06;;;7.63;67.52
35910;BME280;22004;49.120;-0.200;2024-01-10T20:27:52;102526.00;;;7.66;67.44
35910;BME280;22004;49.120;-0.200;2024-01-10T20:30:18;102527.69;;;7.67;67.34
35910;BME280;22004;49.120;-0.200;2024-01-10T20:32:44;102528.41;;;7.69;67.11
35910;BME280;22004;49.120;-0.200;2024-01-10T20:35:09;102532.28;;;7.65;67.43
35910;BME280;22004;49.120;-0.200;2024-01-10T20:37:35;102528.69;;;7.66;67.59
35910;BME280;22004;49.120;-0.200;2024-01-10T20:40:00;102529.53;;;7.78;66.89
35910;BME280;22004;49.120;-0.200;2024-01-10T20:42:28;102532.91;;;7.69;67.13
35910;BME280;22004;49.120;-0.200;2024-01-10T20:44:55;102536.22;;;7.72;67.00
35910;BME280;22004;49.120;-0.200;2024-01-10T20:47:20;102551.91;;;7.77;66.85
35910;BME280;22004;49.120;-0.200;2024-01-10T20:49:55;102545.44;;;7.68;66.47
35910;BME280;22004;49.120;-0.200;2024-01-10T20:52:25;102548.97;;;7.80;66.56
35910;BME280;22004;49.120;-0.200;2024-01-10T20:54:51;102558.81;;;7.80;66.61
35910;BME280;22004;49.120;-0.200;2024-01-10T20:57:19;102555.06;;;7.71;66.33
35910;BME280;22004;49.120;-0.200;2024-01-10T20:59:48;102548.97;;;7.69;66.88
35910;BME280;22004;49.120;-0.200;2024-01-10T21:02:15;102559.53;;;7.70;66.78
35910;BME280;22004;49.120;-0.200;2024-01-10T21:04:41;102559.19;;;7.75;66.50
35910;BME280;22004;49.120;-0.200;2024-01-10T21:07:06;102559.03;;;7.65;66.69
35910;BME280;22004;49.120;-0.200;2024-01-10T21:09:37;102554.03;;;7.61;66.51
35910;BME280;22004;49.120;-0.200;2024-01-10T21:12:04;102560.34;;;7.60;67.02
35910;BME280;22004;49.120;-0.200;2024-01-10T21:14:29;102563.44;;;7.66;66.70
35910;BME280;22004;49.120;-0.200;2024-01-10T21:16:55;102565.97;;;7.68;66.83
35910;BME280;22004;49.120;-0.200;2024-01-10T21:19:20;102580.41;;;7.65;66.78
35910;BME280;22004;49.120;-0.200;2024-01-10T21:21:47;102579.69;;;7.63;66.69
35910;BME280;22004;49.120;-0.200;2024-01-10T21:24:13;102585.50;;;7.57;66.41
35910;BME280;22004;49.120;-0.200;2024-01-10T21:26:40;102588.88;;;7.48;67.02
35910;BME280;22004;49.120;-0.200;2024-01-10T21:29:06;102593.75;;;7.54;66.35
35910;BME280;22004;49.120;-0.200;2024-01-10T21:31:31;102599.72;;;7.58;66.51
35910;BME280;22004;49.120;-0.200;2024-01-10T21:33:57;102601.53;;;7.57;66.57
35910;BME280;22004;49.120;-0.200;2024-01-10T21:36:22;102602.00;;;7.51;66.38
35910;BME280;22004;49.120;-0.200;2024-01-10T21:38:47;102602.59;;;7.55;66.34
35910;BME280;22004;49.120;-0.200;2024-01-10T21:41:13;102609.78;;;7.54;66.18
35910;BME280;22004;49.120;-0.200;2024-01-10T21:43:39;102595.91;;;7.49;66.64
35910;BME280;22004;49.120;-0.200;2024-01-10T21:46:04;102594.25;;;7.59;66.36
35910;BME280;22004;49.120;-0.200;2024-01-10T21:48:30;102603.59;;;7.54;66.42
35910;BME280;22004;49.120;-0.200;2024-01-10T21:50:55;102602.09;;;7.49;66.13
35910;BME280;22004;49.120;-0.200;2024-01-10T21:53:20;102606.72;;;7.47;66.43
35910;BME280;22004;49.120;-0.200;2024-01-10T21:55:46;102611.59;;;7.54;66.42
35910;BME280;22004;49.120;-0.200;2024-01-10T21:58:14;102608.53;;;7.47;66.20
35910;BME280;22004;49.120;-0.200;2024-01-10T22:00:40;102611.88;;;7.62;65.88
35910;BME280;22004;49.120;-0.200;2024-01-10T22:03:05;102611.38;;;7.57;66.14
35910;BME280;22004;49.120;-0.200;2024-01-10T22:05:31;102620.47;;;7.54;65.89
35910;BME280;22004;49.120;-0.200;2024-01-10T22:07:56;102625.25;;;7.62;65.86
35910;BME280;22004;49.120;-0.200;2024-01-10T22:10:22;102635.44;;;7.57;65.57
35910;BME280;22004;49.120;-0.200;2024-01-10T22:12:47;102637.00;;;7.59;65.76
35910;BME280;22004;49.120;-0.200;2024-01-10T22:15:12;102645.16;;;7.58;65.68
35910;BME280;22004;49.120;-0.200;2024-01-10T22:17:38;102639.06;;;7.56;65.73
35910;BME280;22004;49.120;-0.200;2024-01-10T22:20:03;102641.50;;;7.59;65.79
35910;BME280;22004;49.120;-0.200;2024-01-10T22:22:29;102647.06;;;7.56;65.17
35910;BME280;22004;49.120;-0.200;2024-01-10T22:24:54;102654.53;;;7.63;65.46
35910;BME280;22004;49.120;-0.200;2024-01-10T22:27:19;102653.56;;;7.64;65.82
35910;BME280;22004;49.120;-0.200;2024-01-10T22:29:45;102657.34;;;7.62;65.30
35910;BME280;22004;49.120;-0.200;2024-01-10T22:32:11;102656.19;;;7.53;65.31
35910;BME280;22004;49.120;-0.200;2024-01-10T22:34:36;102652.00;;;7.62;65.26
35910;BME280;22004;49.120;-0.200;2024-01-10T22:37:02;102663.22;;;7.54;65.42
35910;BME280;22004;49.120;-0.200;2024-01-10T22:39:27;102667.28;;;7.60;65.41
35910;BME280;22004;49.120;-0.200;2024-01-10T22:41:55;102660.34;;;7.57;64.94
35910;BME280;22004;49.120;-0.200;2024-01-10T22:44:20;102659.00;;;7.51;65.39
35910;BME280;22004;49.120;-0.200;2024-01-10T22:46:48;102667.41;;;7.58;65.03
35910;BME280;22004;49.120;-0.200;2024-01-10T22:49:14;102676.72;;;7.53;65.27
35910;BME280;22004;49.120;-0.200;2024-01-10T22:51:39;102665.69;;;7.57;65.28
35910;BME280;22004;49.120;-0.200;2024-01-10T22:54:05;102665.41;;;7.49;65.17
35910;BME280;22004;49.120;-0.200;2024-01-10T22:56:31;102666.09;;;7.64;65.06
35910;BME280;22004;49.120;-0.200;2024-01-10T22:58:57;102667.19;;;7.61;64.92
35910;BME280;22004;49.120;-0.200;2024-01-10T23:01:22;102672.63;;;7.60;64.97
35910;BME280;22004;49.120;-0.200;2024-01-10T23:03:50;102677.63;;;7.64;65.04
35910;BME280;22004;49.120;-0.200;2024-01-10T23:06:17;102678.22;;;7.57;65.04
35910;BME280;22004;49.120;-0.200;2024-01-10T23:08:43;102686.44;;;7.54;64.88
35910;BME280;22004;49.120;-0.200;2024-01-10T23:11:09;102685.88;;;7.61;64.60
35910;BME280;22004;49.120;-0.200;2024-01-10T23:13:35;102689.84;;;7.56;65.03
35910;BME280;22004;49.120;-0.200;2024-01-10T23:16:01;102684.31;;;7.70;64.90
35910;BME280;22004;49.120;-0.200;2024-01-10T23:18:27;102688.25;;;7.53;64.60
35910;BME280;22004;49.120;-0.200;2024-01-10T23:20:52;102695.59;;;7.62;64.97
35910;BME280;22004;49.120;-0.200;2024-01-10T23:23:17;102692.97;;;7.73;64.32
35910;BME280;22004;49.120;-0.200;2024-01-10T23:25:43;102698.28;;;7.62;64.32
35910;BME280;22004;49.120;-0.200;2024-01-10T23:28:08;102691.31;;;7.60;65.04
35910;BME280;22004;49.120;-0.200;2024-01-10T23:30:33;102685.25;;;7.58;64.83
35910;BME280;22004;49.120;-0.200;2024-01-10T23:32:59;102694.84;;;7.60;64.39
35910;BME280;22004;49.120;-0.200;2024-01-10T23:35:24;102686.84;;;7.60;64.62
35910;BME280;22004;49.120;-0.200;2024-01-10T23:37:56;102694.78;;;7.49;64.31
35910;BME280;22004;49.120;-0.200;2024-01-10T23:40:30;102695.19;;;7.56;64.53
35910;BME280;22004;49.120;-0.200;2024-01-10T23:42:58;102695.94;;;7.58;64.39
35910;BME280;22004;49.120;-0.200;2024-01-10T23:45:24;102694.78;;;7.49;64.55
35910;BME280;22004;49.120;-0.200;2024-01-10T23:47:49;102697.59;;;7.47;64.50
35910;BME280;22004;49.120;-0.200;2024-01-10T23:50:14;102702.94;;;7.47;64.52
35910;BME280;22004;49.120;-0.200;2024-01-10T23:52:40;102708.63;;;7.43;64.92
35910;BME280;22004;49.120;-0.200;2024-01-10T23:55:05;102699.44;;;7.34;65.54
35910;BME280;22004;49.120;-0.200;2024-01-10T23:57:33;102700.03;;;7.27;65.37
35910;BME280;22004;49.120;-0.200;2024-01-10T23:59:59;102703.59;;;7.38;65.38
